Time;durP1;ratioP1;P1;durP2;ratioP2;P2;SDS_P1;SDS_P2;PMS_P1;PMS_P2;Temp;Humidity;BMP_temperature;BMP_pressure;BME280_temperature;BME280_humidity;BME280_pressure;Samples;Min_cycle;Max_cycle;Signal;HPM_P1;HPM_P2
2021/10/11 00:01:55;;;;;;;1.40;0.70;;;;;;;11.33;59.77;101878.81;4902224;29;20029;-78
2021/10/11 00:04:23;;;;;;;1.38;0.28;;;;;;;11.37;59.39;101892.03;4902486;29;20035;-79
2021/10/11 00:07:08;;;;;;;;;;;;;;;;;;;;;
2021/10/11 00:09:45;;;;;;;0.40;0.40;;;;;;;11.31;59.64;101872.72;4907384;29;20119;-79
2021/10/11 00:12:13;;;;;;;0.52;0.32;;;;;;;11.38;59.07;101877.28;4886829;29;20092;-81
2021/10/11 00:14:41;;;;;;;0.85;0.25;;;;;;;11.25;59.37;101861.91;4902461;29;20024;-77
2021/10/11 00:17:06;;;;;;;0.20;0.20;;;;;;;11.30;59.72;101873.81;4897933;29;20034;-76
2021/10/11 00:19:35;;;;;;;0.43;0.30;;;;;;;11.37;59.06;101881.06;4870280;29;20036;-77
2021/10/11 00:22:01;;;;;;;0.30;0.10;;;;;;;11.39;59.52;101884.41;4901363;29;20024;-75
2021/10/11 00:24:27;;;;;;;0.25;0.20;;;;;;;11.42;59.38;101886.66;4904943;29;20111;-77
2021/10/11 00:27:02;;;;;;;0.60;0.22;;;;;;;11.37;59.61;101881.06;4883722;29;20033;-82
2021/10/11 00:29:30;;;;;;;4.47;0.85;;;;;;;11.35;59.53;101876.66;4900594;29;20390;-77
2021/10/11 00:31:55;;;;;;;3.13;0.60;;;;;;;11.35;59.75;101875.84;4892145;29;20713;-79
2021/10/11 00:34:21;;;;;;;1.48;0.70;;;;;;;11.25;60.01;101870.94;4900362;29;20064;-75
2021/10/11 00:36:46;;;;;;;2.70;0.75;;;;;;;11.21;60.20;101872.47;4887301;29;20029;-75
2021/10/11 00:39:12;;;;;;;1.10;0.52;;;;;;;11.15;60.56;101873.41;4900756;29;20038;-76
2021/10/11 00:41:37;;;;;;;4.18;0.60;;;;;;;11.07;60.14;101871.84;4902809;29;20061;-75
2021/10/11 00:44:03;;;;;;;2.17;0.52;;;;;;;10.97;60.50;101886.09;4896210;29;20020;-75
2021/10/11 00:46:28;;;;;;;1.40;0.65;;;;;;;10.85;60.72;101877.03;4914040;29;20036;-76
2021/10/11 00:48:54;;;;;;;1.92;0.82;;;;;;;10.78;60.99;101876.28;4914133;29;20035;-76
2021/10/11 00:51:20;;;;;;;2.90;0.70;;;;;;;10.67;61.57;101874.31;4900510;29;20035;-76
2021/10/11 00:53:46;;;;;;;1.42;0.77;;;;;;;10.62;61.62;101877.75;4901568;29;20495;-76
2021/10/11 00:56:12;;;;;;;0.98;0.60;;;;;;;10.55;61.26;101874.28;4885770;29;20146;-76
2021/10/11 00:58:40;;;;;;;1.30;1.08;;;;;;;10.50;61.87;101880.44;4908970;29;20432;-77
2021/10/11 01:01:06;;;;;;;1.10;0.57;;;;;;;10.41;62.11;101876.31;4900314;29;20056;-77
2021/10/11 01:03:31;;;;;;;7.10;0.60;;;;;;;10.36;62.49;101868.00;4891221;29;20059;-78
2021/10/11 01:05:57;;;;;;;1.92;0.98;;;;;;;10.40;62.50;101877.41;4901418;29;20057;-77
2021/10/11 01:08:22;;;;;;;1.83;0.77;;;;;;;10.37;62.77;101880.59;4907347;29;20033;-76
2021/10/11 01:10:49;;;;;;;0.88;0.70;;;;;;;10.42;62.71;101889.78;4899660;29;20463;-77
2021/10/11 01:13:15;;;;;;;1.30;0.90;;;;;;;10.39;62.81;101894.88;4885960;29;20024;-77
2021/10/11 01:15:42;;;;;;;3.83;0.90;;;;;;;10.35;63.25;101893.66;4901132;29;20028;-79
2021/10/11 01:18:08;;;;;;;1.15;1.05;;;;;;;10.31;62.86;101896.81;4882466;29;20499;-79
2021/10/11 01:20:34;;;;;;;2.15;0.60;;;;;;;10.27;63.65;101890.13;4901818;29;20017;-78
2021/10/11 01:22:59;;;;;;;0.98;0.70;;;;;;;10.20;63.38;101881.16;4901187;29;20047;-78
2021/10/11 01:25:25;;;;;;;0.68;0.50;;;;;;;10.20;63.65;101892.09;4884509;29;20080;-77
2021/10/11 01:27:50;;;;;;;1.58;0.82;;;;;;;10.18;63.32;101891.50;4901291;29;20056;-77
2021/10/11 01:30:18;;;;;;;7.22;1.75;;;;;;;10.15;64.21;101889.22;4885645;29;20032;-77
2021/10/11 01:32:45;;;;;;;1.88;0.95;;;;;;;10.12;64.36;101895.16;4900151;29;20036;-78
2021/10/11 01:35:12;;;;;;;1.58;0.82;;;;;;;10.09;64.39;101890.13;4902655;29;20059;-77
2021/10/11 01:37:38;;;;;;;1.20;0.77;;;;;;;10.09;63.76;101895.59;4908790;29;20041;-77
2021/10/11 01:40:06;;;;;;;0.98;0.63;;;;;;;10.06;64.58;101885.09;4908145;29;20049;-77
2021/10/11 01:43:02;;;;;;;1.25;0.50;;;;;;;10.02;63.99;101879.28;4891678;29;20085;-78
2021/10/11 01:45:27;;;;;;;0.93;0.50;;;;;;;9.98;64.34;101874.50;4889611;29;20055;-74
2021/10/11 01:47:53;;;;;;;5.07;0.90;;;;;;;10.05;64.16;101884.28;4905968;29;20029;-75
2021/10/11 01:50:18;;;;;;;4.82;0.88;;;;;;;10.04;64.20;101881.78;4910346;29;20032;-76
2021/10/11 01:52:44;;;;;;;2.15;0.75;;;;;;;10.03;63.92;101882.84;4903851;29;20041;-77
2021/10/11 01:55:09;;;;;;;1.10;0.70;;;;;;;10.01;64.84;101874.03;4914555;29;20104;-76
2021/10/11 01:57:36;;;;;;;0.88;0.43;;;;;;;9.99;65.02;101873.41;4913684;29;20032;-78
2021/10/11 02:00:04;;;;;;;0.52;0.50;;;;;;;9.97;64.44;101859.97;4906526;29;20032;-78
2021/10/11 02:02:30;;;;;;;1.58;0.70;;;;;;;9.91;64.92;101858.97;4897062;29;20029;-76
2021/10/11 02:04:55;;;;;;;1.35;0.55;;;;;;;9.87;65.36;101871.44;4874987;29;20293;-76
2021/10/11 02:07:21;;;;;;;6.35;0.95;;;;;;;9.88;65.06;101866.81;4903940;29;20052;-77
2021/10/11 02:09:48;;;;;;;1.95;0.82;;;;;;;9.85;64.71;101867.25;4887071;29;20040;-76
2021/10/11 02:12:34;;;;;;;4.38;0.40;;;;;;;9.83;64.76;101864.75;4906238;29;20085;-77
2021/10/11 02:15:01;;;;;;;2.40;0.80;;;;;;;9.75;65.66;101862.31;4889884;29;20092;-77
2021/10/11 02:17:27;;;;;;;0.85;0.55;;;;;;;9.75;65.38;101867.78;4908053;29;20036;-78
2021/10/11 02:20:00;;;;;;;0.65;0.50;;;;;;;9.66;65.54;101850.00;4906936;29;20055;-77
2021/10/11 02:22:26;;;;;;;2.75;0.50;;;;;;;9.65;65.23;101853.78;4888088;29;20104;-76
2021/10/11 02:24:51;;;;;;;2.20;0.35;;;;;;;9.70;65.33;101851.25;4887890;29;20470;-75
2021/10/11 02:27:17;;;;;;;1.23;0.50;;;;;;;9.69;65.10;101863.22;4898861;29;20028;-74
2021/10/11 02:29:42;;;;;;;2.88;0.57;;;;;;;9.64;65.50;101841.19;4888759;29;20479;-74
2021/10/11 02:32:08;;;;;;;1.00;0.75;;;;;;;9.72;65.61;101851.84;4905245;29;20069;-73
2021/10/11 02:34:33;;;;;;;0.82;0.40;;;;;;;9.70;65.26;101848.50;4906545;29;20344;-74
2021/10/11 02:36:59;;;;;;;0.63;0.40;;;;;;;9.64;65.47;101849.38;4904864;29;20049;-75
2021/10/11 02:39:25;;;;;;;2.25;0.55;;;;;;;9.65;65.64;101854.66;4873166;29;20032;-74
2021/10/11 02:41:51;;;;;;;1.95;0.55;;;;;;;9.64;65.97;101861.16;4906457;29;20029;-75
2021/10/11 02:44:16;;;;;;;2.72;0.50;;;;;;;9.64;66.56;101861.16;4907661;29;20040;-75
2021/10/11 02:46:42;;;;;;;2.20;0.80;;;;;;;9.61;66.33;101856.16;4911420;29;20081;-75
2021/10/11 02:49:08;;;;;;;1.50;0.57;;;;;;;9.58;66.34;101851.97;4910832;29;20032;-75
2021/10/11 02:51:34;;;;;;;4.95;0.47;;;;;;;9.58;66.34;101851.97;4903198;29;20061;-77
2021/10/11 02:53:59;;;;;;;0.88;0.60;;;;;;;9.63;66.80;101864.13;4905361;29;20032;-78
2021/10/11 02:56:25;;;;;;;3.08;0.60;;;;;;;9.63;66.51;101859.47;4891982;29;20463;-78
2021/10/11 02:58:50;;;;;;;1.98;1.13;;;;;;;9.68;67.21;101869.72;4896266;29;20033;-77
2021/10/11 03:01:16;;;;;;;3.33;0.85;;;;;;;9.60;67.24;101851.75;4903057;29;20526;-76
2021/10/11 03:03:41;;;;;;;1.17;0.70;;;;;;;9.65;67.02;101862.00;4906078;29;20023;-76
2021/10/11 03:06:07;;;;;;;2.85;1.35;;;;;;;9.59;67.25;101864.56;4910415;29;20048;-76
2021/10/11 03:08:33;;;;;;;4.57;1.15;;;;;;;9.54;66.96;101861.66;4908688;29;20388;-76
2021/10/11 03:11:00;;;;;;;2.78;0.80;;;;;;;9.48;67.11;101862.56;4904655;29;20073;-78
2021/10/11 03:13:26;;;;;;;0.80;0.60;;;;;;;9.42;67.08;101852.53;4928687;29;20032;-77
2021/10/11 03:15:52;;;;;;;2.22;0.98;;;;;;;9.44;67.33;101859.44;4892952;29;20074;-75
2021/10/11 03:18:17;;;;;;;4.57;0.60;;;;;;;9.45;67.48;101857.56;4908454;29;20036;-77
2021/10/11 03:20:43;;;;;;;5.15;1.20;;;;;;;9.44;67.88;101856.69;4913824;29;20035;-78
2021/10/11 03:23:08;;;;;;;1.80;1.05;;;;;;;9.43;67.52;101846.00;4904779;29;20142;-77
2021/10/11 03:25:34;;;;;;;1.42;0.77;;;;;;;9.41;67.91;101842.69;4912602;29;20035;-77
2021/10/11 03:28:00;;;;;;;1.00;0.40;;;;;;;9.41;67.70;101850.88;4905532;29;20176;-76
2021/10/11 03:30:25;;;;;;;1.48;0.43;;;;;;;9.40;66.86;101852.78;4904739;29;20469;-76
2021/10/11 03:32:51;;;;;;;1.30;0.73;;;;;;;9.44;67.87;101844.94;4910142;29;20034;-76
2021/10/11 03:35:17;;;;;;;2.58;0.77;;;;;;;9.46;67.31;101853.75;4895439;29;20053;-78
2021/10/11 03:37:42;;;;;;;0.60;0.30;;;;;;;9.43;67.49;101854.19;4900324;29;20037;-77
2021/10/11 03:40:08;;;;;;;1.25;0.57;;;;;;;9.43;68.27;101851.47;4868726;29;20471;-76
2021/10/11 03:42:34;;;;;;;1.35;0.43;;;;;;;9.43;67.39;101837.81;4905193;29;20028;-77
2021/10/11 03:44:59;;;;;;;2.53;0.52;;;;;;;9.42;67.77;101849.81;4903463;29;20036;-77
2021/10/11 03:47:25;;;;;;;0.43;0.30;;;;;;;9.52;67.33;101855.59;4904768;29;20038;-77
2021/10/11 03:49:50;;;;;;;0.65;0.40;;;;;;;9.54;66.92;101850.75;4905591;29;20032;-76
2021/10/11 03:52:16;;;;;;;0.80;0.50;;;;;;;9.46;67.28;101842.81;4903424;29;20040;-76
2021/10/11 03:54:41;;;;;;;0.85;0.43;;;;;;;9.56;67.36;101854.09;4891638;29;20020;-77
2021/10/11 03:57:07;;;;;;;0.22;0.20;;;;;;;9.58;66.64;101849.25;4902983;29;20028;-77
2021/10/11 03:59:33;;;;;;;1.10;0.40;;;;;;;9.57;66.92;101844.81;4883999;29;20047;-76
2021/10/11 04:01:58;;;;;;;0.32;0.30;;;;;;;9.52;66.38;101841.94;4905660;29;20036;-77
2021/10/11 04:04:36;;;;;;;0.88;0.30;;;;;;;9.47;66.20;101840.94;4908917;29;20043;-77
2021/10/11 04:07:07;;;;;;;0.80;0.40;;;;;;;9.34;66.21;101817.31;4899814;29;20053;-77
2021/10/11 04:09:33;;;;;;;1.63;1.38;;;;;;;9.41;66.84;101850.88;4901263;29;20096;-76
2021/10/11 04:12:06;;;;;;;1.00;0.25;;;;;;;9.33;66.48;101851.13;4901008;29;20462;-77
2021/10/11 04:14:33;;;;;;;0.57;0.57;;;;;;;9.27;66.72;101844.66;4911232;29;20036;-77
2021/10/11 04:16:58;;;;;;;0.88;0.38;;;;;;;9.24;66.58;101854.16;4922320;29;20043;-77
2021/10/11 04:19:24;;;;;;;1.92;0.88;;;;;;;9.18;67.84;101852.28;4917531;29;20032;-76
2021/10/11 04:21:49;;;;;;;2.15;0.73;;;;;;;9.11;67.10;101845.22;4903489;29;20061;-77
2021/10/11 04:24:15;;;;;;;0.55;0.55;;;;;;;9.04;67.17;101845.28;4927657;29;20075;-75
2021/10/11 04:26:48;;;;;;;0.93;0.65;;;;;;;9.01;66.84;101849.28;4903047;29;20086;-75
2021/10/11 04:29:14;;;;;;;0.70;0.60;;;;;;;8.91;67.72;101841.56;4899210;29;20510;-75
2021/10/11 04:31:39;;;;;;;0.90;0.80;;;;;;;8.90;68.27;101850.81;4899041;29;20048;-75
2021/10/11 04:34:05;;;;;;;0.60;0.40;;;;;;;8.83;68.06;101841.84;4901397;29;20032;-75
2021/10/11 04:36:31;;;;;;;1.33;0.60;;;;;;;8.88;67.33;101852.94;4889109;29;20040;-76
2021/10/11 04:38:56;;;;;;;0.70;0.60;;;;;;;8.82;68.10;101853.81;4876855;29;20196;-77
2021/10/11 04:41:22;;;;;;;0.98;0.65;;;;;;;8.81;67.48;101863.06;4905719;29;20036;-77
2021/10/11 04:43:49;;;;;;;3.30;0.70;;;;;;;8.78;68.31;101855.31;4899215;29;20137;-76
2021/10/11 04:46:15;;;;;;;0.65;0.45;;;;;;;8.73;67.68;101852.38;4901638;29;20704;-78
2021/10/11 04:48:40;;;;;;;2.38;0.47;;;;;;;8.73;67.56;101863.28;4886385;29;20027;-77
2021/10/11 04:51:05;;;;;;;2.50;0.63;;;;;;;8.74;67.66;101867.72;4903372;29;20175;-78
2021/10/11 04:53:31;;;;;;;0.77;0.77;;;;;;;8.72;68.33;101864.38;4888144;29;20028;-79
2021/10/11 04:55:56;;;;;;;2.15;0.50;;;;;;;8.71;68.69;101862.69;4902047;29;20097;-78
2021/10/11 04:58:22;;;;;;;0.63;0.40;;;;;;;8.68;68.97;101863.13;4900734;29;20080;-77
2021/10/11 05:00:48;;;;;;;6.43;0.90;;;;;;;8.65;67.82;101869.84;4919297;29;20031;-77
2021/10/11 05:03:13;;;;;;;1.95;0.70;;;;;;;8.64;68.02;101867.34;4904100;29;20028;-77
2021/10/11 05:05:39;;;;;;;3.65;0.70;;;;;;;8.59;68.57;101864.44;4887558;29;20032;-76
2021/10/11 05:08:22;;;;;;;1.65;0.85;;;;;;;8.61;68.42;101868.59;4862631;29;20046;-79
2021/10/11 05:10:47;;;;;;;1.25;0.50;;;;;;;8.62;68.63;101869.47;4893723;29;20127;-76
2021/10/11 05:13:13;;;;;;;3.30;0.95;;;;;;;8.58;68.96;101862.78;4895384;29;20388;-77
2021/10/11 05:15:38;;;;;;;0.88;0.40;;;;;;;8.61;68.92;101874.06;4880959;29;20064;-76
2021/10/11 05:18:04;;;;;;;2.53;0.90;;;;;;;8.59;69.19;101861.72;4898343;29;20096;-75
2021/10/11 05:20:33;;;;;;;2.67;0.50;;;;;;;8.56;68.73;101871.16;4880344;29;20040;-76
2021/10/11 05:22:58;;;;;;;0.60;0.30;;;;;;;8.54;68.78;101857.75;4884066;29;20102;-77
2021/10/11 05:25:27;;;;;;;7.13;0.90;;;;;;;8.54;69.21;101865.94;4884094;29;20025;-76
2021/10/11 05:27:52;;;;;;;0.73;0.30;;;;;;;8.53;68.97;101872.44;4882403;29;20041;-75
2021/10/11 05:30:18;;;;;;;3.70;0.57;;;;;;;8.59;69.22;101875.34;4884493;29;20145;-75
2021/10/11 05:32:43;;;;;;;2.22;1.00;;;;;;;8.62;69.26;101872.19;4881235;29;20460;-76
2021/10/11 05:35:10;;;;;;;3.42;0.60;;;;;;;8.66;69.08;101870.69;4902859;29;20124;-76
2021/10/11 05:37:37;;;;;;;1.20;0.50;;;;;;;8.68;68.71;101874.03;4882685;29;20093;-77
2021/10/11 05:40:05;;;;;;;0.82;0.40;;;;;;;8.68;69.08;101871.31;4883651;29;20037;-76
2021/10/11 05:42:30;;;;;;;1.60;0.63;;;;;;;8.69;68.89;101882.00;4865221;29;20471;-76
2021/10/11 05:44:56;;;;;;;3.38;0.60;;;;;;;8.69;69.89;101875.72;4880626;29;20037;-76
2021/10/11 05:47:22;;;;;;;1.33;0.50;;;;;;;8.67;69.62;101883.28;4881243;29;20475;-77
2021/10/11 05:49:47;;;;;;;1.23;0.50;;;;;;;8.65;68.84;101885.38;4893523;29;20104;-78
2021/10/11 05:52:13;;;;;;;0.47;0.40;;;;;;;8.70;69.33;101889.13;4885763;29;20417;-77
2021/10/11 05:54:39;;;;;;;1.35;0.40;;;;;;;8.66;69.69;101881.59;4877698;29;20033;-76
2021/10/11 05:57:05;;;;;;;2.50;0.73;;;;;;;8.72;68.75;101886.19;4891533;29;20037;-76
2021/10/11 05:59:30;;;;;;;0.47;0.45;;;;;;;8.74;68.78;101894.97;4887360;29;20040;-76
2021/10/11 06:01:56;;;;;;;1.23;0.40;;;;;;;8.73;69.58;101893.31;4880744;29;20040;-76
2021/10/11 06:04:21;;;;;;;0.35;0.28;;;;;;;8.71;69.33;101896.25;4873860;29;20044;-76
2021/10/11 06:06:50;;;;;;;0.80;0.28;;;;;;;8.72;69.45;101897.94;4890032;29;20081;-76
2021/10/11 06:09:18;;;;;;;0.30;0.30;;;;;;;8.68;69.55;101891.22;4904601;29;20104;-81
2021/10/11 06:15:17;;;;;;;1.02;0.52;;;;;;;8.65;68.95;101886.22;4845053;29;20453;-80
2021/10/11 06:17:42;;;;;;;0.93;0.70;;;;;;;8.56;68.97;101873.91;4854786;29;20030;-79
2021/10/11 06:20:09;;;;;;;1.83;0.70;;;;;;;8.51;69.85;101877.28;4844234;29;20070;-81
2021/10/11 06:22:34;;;;;;;4.75;0.40;;;;;;;8.55;69.55;101881.22;4831109;29;20102;-81
2021/10/11 06:25:27;;;;;;;;;;;;;;;;;;;;;
2021/10/11 06:27:56;;;;;;;1.52;0.60;;;;;;;8.54;70.23;101889.63;4902290;29;20115;-76
2021/10/11 06:30:21;;;;;;;1.08;0.50;;;;;;;8.46;69.88;101877.06;4901383;29;20484;-76
2021/10/11 06:32:47;;;;;;;0.45;0.35;;;;;;;8.48;70.55;101885.84;4904457;29;20124;-77
2021/10/11 06:35:13;;;;;;;0.88;0.50;;;;;;;8.57;69.61;101908.25;4903606;29;20020;-78
2021/10/11 06:37:51;;;;;;;0.38;0.17;;;;;;;8.50;69.84;101894.69;4892011;29;20052;-78
2021/10/11 06:40:19;;;;;;;0.75;0.45;;;;;;;8.59;69.92;101908.06;4908261;29;20428;-80
2021/10/11 06:42:45;;;;;;;3.83;0.35;;;;;;;8.53;70.09;101905.16;4894371;29;20024;-79
2021/10/11 06:45:18;;;;;;;0.57;0.45;;;;;;;8.49;70.11;101903.91;4906761;29;20051;-79
2021/10/11 06:47:43;;;;;;;3.05;0.70;;;;;;;8.62;70.46;101919.38;4892889;29;20028;-78
2021/10/11 06:50:09;;;;;;;0.50;0.30;;;;;;;8.51;70.33;101900.97;4907238;29;20043;-78
2021/10/11 06:52:35;;;;;;;1.75;0.52;;;;;;;8.70;70.16;101918.28;4908141;29;20117;-77
2021/10/11 06:55:00;;;;;;;3.03;1.00;;;;;;;8.64;69.84;101900.91;4911751;29;20029;-77
2021/10/11 06:57:26;;;;;;;1.13;0.40;;;;;;;8.66;70.32;101903.41;4906540;29;20029;-82
2021/10/11 06:59:51;;;;;;;1.73;0.70;;;;;;;8.82;71.21;101922.00;4893322;29;20052;-82
2021/10/11 07:02:19;;;;;;;1.55;0.70;;;;;;;8.87;70.32;101924.91;4875857;29;20032;-78
2021/10/11 07:05:17;;;;;;;0.95;0.70;;;;;;;8.96;70.35;101930.13;4888735;29;20150;-78
2021/10/11 07:08:52;;;;;;;0.65;0.28;;;;;;;9.03;70.71;101926.28;4887202;29;20068;-82
2021/10/11 07:11:17;;;;;;;0.80;0.35;;;;;;;9.12;70.53;101928.78;4903501;29;20036;-77
2021/10/11 07:14:28;;;;;;;;;;;;;;;;;;;;;
2021/10/11 07:16:55;;;;;;;0.60;0.50;;;;;;;9.28;69.70;101921.97;4874957;29;20119;-79
2021/10/11 07:19:20;;;;;;;4.20;0.60;;;;;;;9.36;69.58;101924.41;4906629;29;20052;-77
2021/10/11 07:21:46;;;;;;;1.92;0.65;;;;;;;9.51;69.95;101938.56;4904465;29;20024;-75
2021/10/11 07:24:22;;;;;;;;;;;;;;;;;;;;;
2021/10/11 07:27:05;;;;;;;2.22;0.65;;;;;;;9.91;69.64;101932.75;4892972;29;20115;-77
2021/10/11 07:29:37;;;;;;;0.52;0.20;;;;;;;10.11;68.60;101921.63;4894103;29;20028;-77
2021/10/11 07:32:07;;;;;;;1.13;0.50;;;;;;;10.47;68.19;101946.53;4878864;29;20110;-76
2021/10/11 07:34:33;;;;;;;0.40;0.20;;;;;;;10.68;67.95;101925.25;4906733;29;20103;-77
2021/10/11 07:36:59;;;;;;;3.35;0.60;;;;;;;10.98;68.07;101927.97;4895393;29;20049;-76
2021/10/11 07:39:35;;;;;;;;;;;;;;;;;;;;;
2021/10/11 07:42:30;;;;;;;;;;;;;;;;;;;;;
2021/10/11 07:45:02;;;;;;;0.82;0.43;;;;;;;11.94;67.41;101951.81;4895932;29;20111;-77
2021/10/11 07:47:54;;;;;;;4.25;0.80;;;;;;;12.49;67.82;101961.56;4890843;29;20096;-79
2021/10/11 07:50:39;;;;;;;;;;;;;;;;;;;;;
2021/10/11 07:53:26;;;;;;;2.13;0.63;;;;;;;13.01;66.05;101947.78;4905007;29;20115;-77
2021/10/11 07:56:02;;;;;;;;;;;;;;;;;;;;;
2021/10/11 07:58:28;;;;;;;4.38;0.35;;;;;;;13.55;64.24;101963.91;4907768;29;20111;-77
2021/10/11 08:01:11;;;;;;;3.20;0.50;;;;;;;14.13;63.99;101975.56;4879813;29;20051;-76
2021/10/11 08:03:37;;;;;;;2.92;0.93;;;;;;;14.37;62.80;101969.84;4906066;29;20065;-75
2021/10/11 08:06:07;;;;;;;1.55;0.60;;;;;;;14.54;61.67;101969.78;4908374;29;20032;-76
2021/10/11 08:08:43;;;;;;;0.50;0.30;;;;;;;14.58;60.94;101973.69;4903229;29;20378;-75
2021/10/11 08:11:28;;;;;;;0.70;0.50;;;;;;;14.73;61.14;101981.34;4906966;29;20068;-75
2021/10/11 08:14:03;;;;;;;1.67;0.45;;;;;;;14.89;60.79;101970.53;4906852;29;20459;-76
2021/10/11 08:16:40;;;;;;;1.02;0.55;;;;;;;15.28;59.91;101984.19;4902782;29;20048;-75
2021/10/11 08:19:55;;;;;;;0.63;0.22;;;;;;;15.93;59.88;101984.22;4907905;29;20031;-75
2021/10/11 08:22:22;;;;;;;1.42;0.60;;;;;;;16.26;57.57;101987.78;4909304;29;20055;-75
2021/10/11 08:25:20;;;;;;;1.38;0.70;;;;;;;16.73;57.65;101981.38;4895778;29;20032;-76
2021/10/11 08:27:46;;;;;;;0.50;0.30;;;;;;;17.33;56.56;101994.88;4902752;29;20978;-74
2021/10/11 08:30:12;;;;;;;1.20;0.50;;;;;;;17.80;55.58;102002.13;4914630;29;20036;-74
2021/10/11 08:32:40;;;;;;;0.50;0.30;;;;;;;18.33;54.76;102012.06;4906852;29;20043;-76
2021/10/11 08:35:09;;;;;;;3.00;0.57;;;;;;;18.87;53.04;102010.56;4891291;29;20037;-74
2021/10/11 08:37:35;;;;;;;2.38;0.50;;;;;;;19.26;52.28;102005.09;4888604;29;20040;-75
2021/10/11 08:40:01;;;;;;;1.33;0.32;;;;;;;19.52;51.47;102010.44;4889329;29;20139;-75
2021/10/11 08:42:28;;;;;;;1.25;0.50;;;;;;;19.78;50.76;102001.94;4892363;29;20060;-76
2021/10/11 08:44:55;;;;;;;1.20;0.93;;;;;;;20.17;49.20;102003.84;4878424;29;20032;-76
2021/10/11 08:47:20;;;;;;;1.00;0.50;;;;;;;20.56;49.50;102000.09;4874684;29;20068;-75
2021/10/11 08:49:49;;;;;;;2.22;0.25;;;;;;;21.26;49.47;102013.38;4879244;29;20040;-74
2021/10/11 08:52:16;;;;;;;0.73;0.35;;;;;;;21.85;47.79;102010.28;4906402;29;20039;-77
2021/10/11 08:54:58;;;;;;;1.55;0.52;;;;;;;22.39;46.72;102010.72;4890906;29;20547;-73
2021/10/11 08:57:29;;;;;;;0.93;0.32;;;;;;;22.94;45.84;102020.22;4907510;29;20060;-72
2021/10/11 09:00:08;;;;;;;1.50;0.70;;;;;;;23.53;44.12;102020.31;4906685;29;20040;-72
2021/10/11 09:02:33;;;;;;;0.70;0.43;;;;;;;23.83;42.84;102007.56;4910499;29;20052;-72
2021/10/11 09:04:59;;;;;;;1.23;0.38;;;;;;;24.29;42.34;102024.31;4904807;29;20032;-74
2021/10/11 09:07:27;;;;;;;1.27;0.70;;;;;;;24.58;40.74;102005.00;4903955;29;20411;-72
2021/10/11 09:09:54;;;;;;;0.50;0.40;;;;;;;24.54;40.55;102014.38;4900894;29;20032;-73
2021/10/11 09:12:23;;;;;;;2.75;0.40;;;;;;;24.35;39.81;102018.22;4901223;29;20039;-72
2021/10/11 09:15:02;;;;;;;2.90;0.60;;;;;;;24.03;38.93;102011.84;4902623;29;20025;-75
2021/10/11 09:17:31;;;;;;;4.13;0.65;;;;;;;23.77;39.66;102019.19;4902096;29;20013;-74
2021/10/11 09:20:11;;;;;;;2.38;0.40;;;;;;;23.95;40.20;102020.97;4903653;29;20064;-73
2021/10/11 09:22:38;;;;;;;1.02;0.70;;;;;;;24.26;39.74;102019.34;4900153;29;20052;-71
2021/10/11 09:25:05;;;;;;;0.70;0.40;;;;;;;24.58;39.63;102015.38;4904783;29;20040;-71
2021/10/11 09:27:53;;;;;;;0.43;0.43;;;;;;;24.90;39.13;102019.78;4904699;29;20029;-75
2021/10/11 09:30:26;;;;;;;2.47;0.70;;;;;;;24.89;37.80;102015.31;4903332;29;20035;-74
2021/10/11 09:33:13;;;;;;;0.82;0.50;;;;;;;25.22;37.66;102023.28;4901501;29;20028;-74
2021/10/11 09:35:42;;;;;;;1.20;0.93;;;;;;;25.66;37.62;102026.13;4886128;29;20171;-74
2021/10/11 09:38:55;;;;;;;1.33;0.57;;;;;;;25.79;36.20;102013.09;4904785;29;20035;-76
2021/10/11 09:41:48;;;;;;;1.27;0.57;;;;;;;25.57;36.17;102017.75;4897151;29;20166;-73
2021/10/11 09:44:18;;;;;;;1.58;0.47;;;;;;;25.47;36.42;102020.88;4902202;29;20043;-75
2021/10/11 09:49:30;;;;;;;4.90;0.68;;;;;;;26.02;36.56;102021.31;4901157;29;20774;-74
2021/10/11 09:52:02;;;;;;;1.80;0.95;;;;;;;26.22;34.97;102026.22;4906486;29;20103;-75
2021/10/11 09:54:40;;;;;;;;;;;;;;;;;;;;;
2021/10/11 09:57:14;;;;;;;1.13;0.55;;;;;;;26.57;34.69;102003.63;4908345;29;20108;-74
2021/10/11 10:00:18;;;;;;;5.10;0.70;;;;;;;27.02;34.13;102027.53;4904577;29;20059;-73
2021/10/11 10:02:58;;;;;;;4.38;0.50;;;;;;;27.28;33.76;102002.06;4903722;29;20092;-74
2021/10/11 10:05:39;;;;;;;1.42;0.43;;;;;;;27.90;33.53;101996.72;4906002;29;20066;-75
2021/10/11 10:08:30;;;;;;;0.55;0.40;;;;;;;28.50;33.49;102002.00;4902003;29;20109;-75
2021/10/11 10:25:19;;;;;;;2.28;0.77;;;;;;;29.96;29.34;102015.28;4869123;29;20101;-74
2021/10/11 10:28:11;;;;;;;1.83;0.73;;;;;;;29.45;28.11;102001.75;4866683;29;20560;-74
2021/10/11 10:34:24;;;;;;;1.33;0.77;;;;;;;27.54;29.50;101995.44;4866673;29;20033;-74
2021/10/11 10:37:35;;;;;;;1.17;0.50;;;;;;;27.04;30.44;101999.91;4868797;29;20044;-74
2021/10/11 10:40:31;;;;;;;0.98;0.43;;;;;;;26.98;31.04;101976.88;4861487;29;20037;-75
2021/10/11 10:43:40;;;;;;;0.85;0.30;;;;;;;27.30;30.96;101999.72;4866690;29;20065;-74
2021/10/11 10:46:08;;;;;;;0.80;0.47;;;;;;;27.27;31.74;101975.13;4879233;29;20041;-74
2021/10/11 10:48:40;;;;;;;1.85;0.70;;;;;;;27.67;31.11;101983.06;4886512;29;20036;-75
2021/10/11 10:51:05;;;;;;;1.40;0.50;;;;;;;27.87;30.86;101988.97;4887770;29;20044;-75
2021/10/11 10:53:33;;;;;;;1.30;0.52;;;;;;;27.83;30.81;101986.06;4869535;29;20045;-73
2021/10/11 10:56:07;;;;;;;0.73;0.40;;;;;;;27.62;30.41;101976.84;4888168;29;20550;-73
2021/10/11 10:58:33;;;;;;;1.25;1.05;;;;;;;27.21;30.32;101993.34;4871426;29;20045;-75
2021/10/11 11:01:01;;;;;;;0.70;0.60;;;;;;;26.84;30.99;101993.13;4918180;29;20209;-74
2021/10/11 11:03:27;;;;;;;1.60;0.40;;;;;;;26.85;30.87;101997.56;4887514;29;20033;-76
2021/10/11 11:05:54;;;;;;;2.50;0.93;;;;;;;26.93;31.21;101990.28;4890294;29;20088;-74
2021/10/11 11:08:23;;;;;;;1.33;0.82;;;;;;;27.25;31.46;101987.88;4878146;29;20048;-75
2021/10/11 11:10:48;;;;;;;0.77;0.77;;;;;;;27.47;30.91;101989.56;4906555;29;20043;-75
2021/10/11 11:13:16;;;;;;;2.78;0.82;;;;;;;27.44;30.13;101990.25;4906453;29;20084;-74
2021/10/11 11:15:50;;;;;;;2.13;1.77;;;;;;;27.11;30.44;101982.53;4903877;29;20059;-74
2021/10/11 11:18:19;;;;;;;2.72;1.40;;;;;;;27.15;30.47;101994.72;4906312;29;20029;-75
2021/10/11 11:20:46;;;;;;;0.82;0.82;;;;;;;27.18;31.11;101988.44;4903501;29;20032;-74
2021/10/11 11:23:15;;;;;;;1.63;1.02;;;;;;;27.31;31.35;101990.13;4906262;29;20671;-75
2021/10/11 11:25:46;;;;;;;1.30;0.95;;;;;;;27.28;30.94;101987.22;4889528;29;20020;-74
2021/10/11 11:28:23;;;;;;;1.17;0.77;;;;;;;27.18;30.25;101991.25;4906845;29;20075;-76
2021/10/11 11:30:54;;;;;;;0.98;0.80;;;;;;;26.59;30.62;101994.88;4908834;29;20202;-78
2021/10/11 11:33:25;;;;;;;4.97;0.50;;;;;;;26.22;31.52;101986.97;4908457;29;20043;-78
2021/10/11 11:35:53;;;;;;;2.20;0.55;;;;;;;26.17;31.46;101995.56;4907967;29;20111;-71
2021/10/11 11:38:21;;;;;;;0.93;0.68;;;;;;;26.15;31.62;101985.84;4910446;29;20039;-72
2021/10/11 11:40:51;;;;;;;0.73;0.30;;;;;;;26.13;32.11;101988.97;4894799;29;20241;-72
2021/10/11 11:43:17;;;;;;;0.93;0.63;;;;;;;25.94;31.98;101992.13;4893732;29;20065;-73
2021/10/11 11:45:47;;;;;;;1.50;1.05;;;;;;;25.71;31.54;101997.13;4904359;29;20069;-73
2021/10/11 11:48:19;;;;;;;1.67;0.63;;;;;;;25.39;32.28;101976.88;4893299;29;20036;-75
2021/10/11 11:50:47;;;;;;;0.68;0.63;;;;;;;25.20;32.29;101975.22;4908706;29;20032;-73
2021/10/11 11:53:17;;;;;;;1.88;0.60;;;;;;;25.07;32.97;101976.19;4904587;29;20032;-73
2021/10/11 12:03:04;;;;;;;;;;;;;;;;;;;;;
2021/10/11 12:05:35;;;;;;;4.18;0.65;;;;;;;24.09;34.23;101948.25;4860804;29;20029;-73
2021/10/11 12:08:01;;;;;;;0.82;0.73;;;;;;;23.96;34.54;101979.91;4896641;29;20139;-72
2021/10/11 12:10:26;;;;;;;0.85;0.70;;;;;;;23.69;35.05;101979.69;4893325;29;20454;-70
2021/10/11 12:12:57;;;;;;;1.98;0.70;;;;;;;23.42;35.07;101977.88;4900033;29;20475;-73
2021/10/11 12:15:23;;;;;;;1.60;0.52;;;;;;;23.20;35.45;101970.28;4903579;29;20037;-72
2021/10/11 12:17:48;;;;;;;7.35;1.00;;;;;;;23.02;36.45;101961.72;4906580;29;20036;-73
2021/10/11 12:20:15;;;;;;;1.45;0.60;;;;;;;22.98;36.19;101954.28;4885801;29;20036;-72
2021/10/11 12:22:41;;;;;;;3.28;0.75;;;;;;;22.99;36.75;101953.16;4900266;29;20036;-73
2021/10/11 12:25:09;;;;;;;1.10;0.60;;;;;;;23.16;36.60;101953.34;4890623;29;20052;-73
2021/10/11 12:27:35;;;;;;;1.15;0.47;;;;;;;23.29;36.61;101942.44;4885684;29;20051;-72